Logo AVAMET
Benvolgut visitant, si us plau, ingressa Recuperar contrasenya

Callosa d'en Sarrià Margeve

Dades diàries. Acumulats / Últims 30 dies disponibles

Data Temperatura (°C) Humitat rel. (%) Pressió rel. (hPa) Vent (km/h) Precipitació
Mínima Mitjana Màxima Amplitud
tèrmica
Mínima Mitjana Màxima Mínima Mitjana Màxima Predom. Mitjana Ràfega
màxima
Total
(mm)
Índex-n
Mínima Mitjana Màxima Mínima Mitjana Màxima n
0 a 1
P0 max
mm 5'
Dades mensuals acumulades fins l'últim dia disponible
10/2019 17,3 18,3 20,3 21,9 24,6 26,0 29,9 12,6 17 66 95 1.008 1.015 1.021   5,8 31,3 3,0
Dades anuals acumulades fins l'últim dia disponible
2019 3,1 15,0 27,2 18,7 10,9 23,0 38,2 35,1 13 55 96 992 1.015 1.032   6,8 53,7 467,6
Últims 30 dies disponibles
14-10-2019 17,3     20,7     25,4 8,1 46 73 92 1.010 1.012 1.015 SO 5,3 24,3 3,0
13-10-2019 19,3     22,2     26,8 7,5 42 66 87 1.013 1.014 1.016 SO 6,1 19,3 0,0
12-10-2019 20,3     23,1     25,4 5,1 58 68 78 1.015 1.016 1.017 SO 10,6 26,2 0,0
11-10-2019 18,6     21,5     24,6 6,0 60 74 84 1.017 1.019 1.021 SSO 5,2 22,9 0,0
10-10-2019 18,0     21,5     25,0 7,0 55 72 83 1.017 1.019 1.021 SSO 4,0 22,1 0,0
09-10-2019 17,6     21,0     25,3 7,7 57 74 84 1.014 1.015 1.018 S 3,7 18,2 0,0
08-10-2019 18,1     20,7     24,8 6,7 60 72 82 1.016 1.017 1.019 S 6,6 28,7 0,0
07-10-2019 17,8     21,3     25,2 7,4 51 71 93 1.012 1.014 1.017 SSO 5,2 24,3 0,0
06-10-2019 17,8     21,5     25,3 7,5 62 80 94 1.014 1.015 1.017 SSO 4,9 20,3 0,0
05-10-2019 19,1     22,6     27,2 8,1 35 59 92 1.011 1.013 1.015 SSO 5,5 22,9 0,0
04-10-2019 17,7     21,8     26,2 8,5 32 56 82 1.013 1.014 1.016 SSO 5,6 19,3 0,0
03-10-2019 17,5     20,5     24,8 7,3 46 58 78 1.014 1.015 1.015 SO 6,2 20,5 0,0
02-10-2019 18,5     24,3     29,9 11,4 19 37 62 1.008 1.011 1.015 OSO 7,2 27,7 0,0
01-10-2019 18,6     23,5     28,1 9,5 17 70 95 1.008 1.010 1.014 SSO 4,4 31,3 0,0
30-09-2019 20,0     23,7     28,3 8,3 32 62 95 1.013 1.014 1.016 SSO 5,7 20,9 0,0
29-09-2019 18,7     22,6     27,0 8,3 44 73 95 1.014 1.016 1.018 SSO 4,4 19,3 0,0
28-09-2019 19,9     22,7     27,4 7,5 59 78 94 1.015 1.017 1.019 S 4,8 19,9 0,0
27-09-2019 18,6     22,6     26,9 8,3 46 71 94 1.015 1.016 1.017 SSO 4,1 21,4 0,0
26-09-2019 19,2     22,4     26,2 7,0 60 76 91 1.015 1.017 1.018 SSO 6,6 28,8 0,0
25-09-2019 20,1     25,3     30,3 10,2 31 54 88 1.011 1.013 1.016 SO 5,3 21,7 0,0
24-09-2019 18,8     22,3     29,0 10,2 45 65 81 1.013 1.015 1.018 OSO 5,7 20,4 0,0
23-09-2019 19,2     23,4     27,1 7,9 33 53 82 1.014 1.016 1.018 SSO 4,9 21,7 0,0
22-09-2019 20,6     23,5     27,0 6,4 61 77 90 1.010 1.011 1.014 S 5,1 21,1 0,0
21-09-2019 21,3     23,8     27,3 6,0 56 73 88 1.010 1.011 1.013 SSO 6,1 18,8 0,0
20-09-2019 20,7     23,0     26,1 5,4 58 72 81 1.013 1.015 1.016 O 5,6 20,4 0,0
19-09-2019 20,4     23,9     27,0 6,6 51 68 88 1.014 1.015 1.017 SSE 7,5 19,8 0,0
18-09-2019 20,2     24,1     28,2 8,0 54 71 91 1.011 1.013 1.014 S 5,4 19,8 0,0
17-09-2019 20,1     22,7     27,1 7,0 66 85 93 1.012 1.015 1.016 SSO 3,4 26,3 0,0
16-09-2019 20,8     24,2     28,0 7,2 57 77 95 1.015 1.016 1.017 SSO 5,4 19,8 0,0
15-09-2019 22,2     24,0     26,1 3,9 66 76 84 1.016 1.017 1.019 SO 10,9 25,9 0,0
Últims 13 mesos disponibles
09/2019 12,5 19,6 22,2 23,0 21,6 26,8 31,6 19,1 53 70 85 1.008 1.015 1.022 SSO 6,5 43,0 197,4
08/2019 19,9 22,8 27,2 26,5 28,0 30,6 35,3 15,4 35 61 77 1.009 1.014 1.017 S 7,1 36,4 22,8
07/2019 20,2 23,4 25,9 27,2 26,6 31,7 36,5 16,3 24 51 76 1.004 1.012 1.019 S 8,1 35,9 0,2
06/2019 13,8 18,8 24,4 23,0 22,1 27,5 38,2 24,4 25 51 70 1.007 1.013 1.020 S 8,0 35,1 1,4
05/2019 9,9 14,0 19,6 17,9 18,1 22,2 27,0 17,1 43 58 79 1.003 1.013 1.023 S 7,5 40,0 21,2
04/2019 7,3 11,3 14,4 14,5 13,4 18,4 26,9 19,6 28 59 84 997 1.010 1.023 S 7,5 53,7 160,4
03/2019 6,3 9,8 14,4 13,7 11,6 18,2 26,8 20,5 27 47 83 1.010 1.020 1.028 SE 5,9 46,4 49,2
02/2019 3,1 8,0 11,6 11,7 11,8 16,5 20,7 17,6 24 48 65 994 1.022 1.030 S 5,8 35,4 1,0
01/2019 3,9 7,3 11,1 10,9 10,9 15,1 18,9 15,0 28 48 72 1.001 1.016 1.028 SSE 5,0 41,7 11,0
12/2018 6,6 9,4 13,5 13,0 12,3 17,4 22,0 15,4 32 56 78 1.006 1.023 1.029 SO 2,7 35,8 35,2
11/2018 8,0 11,1 15,4 14,1 12,7 17,9 22,4 14,4 37 60 85 998 1.013 1.020 S 4,5 48,9 81,2
10/2018 7,1 14,5 17,7 17,7 12,3 22,1 26,4 19,3 33 63 78 997 1.012 1.023 4,8 39,9 75,0
09/2018 14,5 19,9 22,0 23,2 23,8 27,8 30,3 15,8 53 69 82 1.010 1.017 1.025 5,3 30,6 68,2
Tots els anys disponibles
Temperatura (°C)
Humitat relativa (%)
Velocitat del vent i ràfega màxima (km/h)
Direcció del vent (°)
Pressió (hPa)
Precipitació (mm)
Nota sobre les dades: s'avisa a l'usuari de la provisionalitat i no oficialitat d'aquestes dades
Logo AVAMET blanc
Web allotjada a Sollutia
Llicència de Creative CommonsLa web d'AVAMET i els seus continguts estan subjectes a una llicència de
Reconeixement - No Comercial - Compartir igual
Últimes estacions: Villena - Villa Ventín (Soci), Benissa - Convent (Soci), Xàbia Fontanella (Soci), Castielfabib (Soci), Sant Mateu (Soci), Vallada (Soci), Agullent (Soci), - - -